createdAt,value
2018-05-27T00:01:15.324Z,15.53
2018-05-27T00:03:43.025Z,20.90
2018-05-27T00:06:10.533Z,25.13
2018-05-27T00:08:38.259Z,21.10
2018-05-27T00:11:05.770Z,16.43
2018-05-27T00:13:33.485Z,21.03
2018-05-27T00:16:00.999Z,19.93
2018-05-27T00:18:28.666Z,22.07
2018-05-27T00:20:56.178Z,18.97
2018-05-27T00:23:23.689Z,21.97
2018-05-27T00:25:51.356Z,25.93
2018-05-27T00:28:19.694Z,30.90
2018-05-27T00:30:47.400Z,22.17
2018-05-27T00:33:15.894Z,28.77
2018-05-27T00:35:43.414Z,24.73
2018-05-27T00:38:11.207Z,25.03
2018-05-27T00:40:38.889Z,25.90
2018-05-27T00:43:06.398Z,32.27
2018-05-27T00:45:34.097Z,23.13
2018-05-27T00:48:01.603Z,20.37
2018-05-27T00:50:29.322Z,24.67
2018-05-27T00:52:56.823Z,19.13
2018-05-27T00:55:24.557Z,33.10
2018-05-27T00:57:52.058Z,26.53
2018-05-27T01:00:19.583Z,26.97
2018-05-27T01:02:47.090Z,24.07
2018-05-27T01:05:14.603Z,32.07
2018-05-27T01:07:42.112Z,30.63
2018-05-27T01:10:09.896Z,34.57
2018-05-27T01:12:37.653Z,29.87
2018-05-27T01:15:05.177Z,34.47
2018-05-27T01:17:32.878Z,24.67
2018-05-27T01:20:00.403Z,37.83
2018-05-27T01:22:28.091Z,26.93
2018-05-27T01:24:55.598Z,26.53
2018-05-27T01:27:23.614Z,33.87
2018-05-27T01:29:51.390Z,29.10
2018-05-27T01:32:18.904Z,26.23
2018-05-27T01:34:46.413Z,36.57
2018-05-27T01:37:14.046Z,39.07
2018-05-27T01:39:41.953Z,37.10
2018-05-27T01:42:09.591Z,33.70
2018-05-27T01:44:37.494Z,33.93
2018-05-27T01:47:05.761Z,39.40
2018-05-27T01:49:33.298Z,39.40
2018-05-27T01:52:00.954Z,37.40
2018-05-27T01:54:28.718Z,47.90
2018-05-27T01:56:56.490Z,35.37
2018-05-27T01:59:25.518Z,30.20
2018-05-27T02:01:53.212Z,34.30
2018-05-27T02:04:21.705Z,35.30
2018-05-27T02:06:49.211Z,44.07
2018-05-27T02:09:17.482Z,44.30
2018-05-27T02:11:45.214Z,43.10
2018-05-27T02:14:12.978Z,40.07
2018-05-27T02:16:40.494Z,41.33
2018-05-27T02:19:08.010Z,37.63
2018-05-27T02:21:36.441Z,35.33
2018-05-27T02:24:03.945Z,40.37
2018-05-27T02:26:31.486Z,45.23
2018-05-27T02:28:59.250Z,41.07
2018-05-27T02:31:27.504Z,47.53
2018-05-27T02:33:55.086Z,39.33
2018-05-27T02:36:22.603Z,49.40
2018-05-27T02:38:50.635Z,59.47
2018-05-27T02:41:19.642Z,46.27
2018-05-27T02:43:47.246Z,50.37
2018-05-27T02:46:14.750Z,61.00
2018-05-27T02:48:42.252Z,57.60
2018-05-27T02:51:10.643Z,54.53
2018-05-27T02:53:38.866Z,64.53
2018-05-27T02:56:07.142Z,55.63
2018-05-27T02:58:34.875Z,57.40
2018-05-27T03:01:02.390Z,65.50
2018-05-27T03:03:30.647Z,63.10
2018-05-27T03:05:58.162Z,62.57
2018-05-27T03:08:26.179Z,69.43
2018-05-27T03:10:53.782Z,69.63
2018-05-27T03:13:21.411Z,70.80
2018-05-27T03:15:48.954Z,69.00
2018-05-27T03:18:16.698Z,64.37
2018-05-27T03:20:44.915Z,61.93
2018-05-27T03:23:12.432Z,81.00
2018-05-27T03:25:39.961Z,70.63
2018-05-27T03:28:07.721Z,63.77
2018-05-27T03:30:35.229Z,68.43
2018-05-27T03:33:02.910Z,65.03
2018-05-27T03:35:30.822Z,60.77
2018-05-27T03:37:59.098Z,56.87
2018-05-27T03:40:26.837Z,57.47
2018-05-27T03:42:54.450Z,64.57
2018-05-27T03:45:22.994Z,48.70
2018-05-27T03:47:51.355Z,59.10
2018-05-27T03:50:19.139Z,55.83
2018-05-27T03:52:46.650Z,52.90
2018-05-27T03:55:15.186Z,51.50
2018-05-27T03:57:42.711Z,53.30
2018-05-27T04:00:10.217Z,48.03
2018-05-27T04:02:37.958Z,45.50
2018-05-27T04:05:17.256Z,49.60
2018-05-27T04:07:56.826Z,43.40
2018-05-27T04:10:24.593Z,41.60
2018-05-27T04:12:52.115Z,47.20
2018-05-27T04:15:19.782Z,51.90
2018-05-27T04:17:47.293Z,48.23
2018-05-27T04:20:14.799Z,39.30
2018-05-27T04:22:42.313Z,44.10
2018-05-27T04:25:10.946Z,43.27
2018-05-27T04:27:38.458Z,49.30
2018-05-27T04:30:05.967Z,39.17
2018-05-27T04:32:33.534Z,40.83
2018-05-27T04:35:01.742Z,40.10
2018-05-27T04:37:29.259Z,46.70
2018-05-27T04:39:56.804Z,46.77
2018-05-27T04:42:24.601Z,43.80
2018-05-27T04:44:52.102Z,40.97
2018-05-27T04:47:19.832Z,38.63
2018-05-27T04:49:47.334Z,45.20
2018-05-27T04:52:15.038Z,45.93
2018-05-27T04:54:42.811Z,42.23
2018-05-27T04:57:10.934Z,46.73
2018-05-27T04:59:38.437Z,40.47
2018-05-27T05:02:06.072Z,50.43
2018-05-27T05:04:33.577Z,38.17
2018-05-27T05:07:01.089Z,42.50
2018-05-27T05:09:28.736Z,40.27
2018-05-27T05:11:56.229Z,45.93
2018-05-27T05:14:23.723Z,39.90
2018-05-27T05:16:51.423Z,59.47
2018-05-27T05:19:18.955Z,47.03
2018-05-27T05:21:47.264Z,43.07
2018-05-27T05:24:14.491Z,43.50
2018-05-27T05:26:42.121Z,44.23
2018-05-27T05:29:09.656Z,43.70
2018-05-27T05:31:37.170Z,46.43
2018-05-27T05:34:04.681Z,42.03
2018-05-27T05:36:32.335Z,41.77
2018-05-27T05:38:59.863Z,48.80
2018-05-27T05:41:27.513Z,45.30
2018-05-27T05:43:55.018Z,57.73
2018-05-27T05:46:22.535Z,41.57
2018-05-27T05:48:50.696Z,42.77
2018-05-27T05:51:18.947Z,41.33
2018-05-27T05:53:46.684Z,39.53
2018-05-27T05:56:14.574Z,48.27
2018-05-27T05:58:42.854Z,43.57
2018-05-27T06:01:10.599Z,53.60
2018-05-27T06:03:38.061Z,53.13
2018-05-27T06:06:05.770Z,54.10
2018-05-27T06:08:34.047Z,53.77
2018-05-27T06:11:01.634Z,57.53
2018-05-27T06:13:29.151Z,53.30
2018-05-27T06:15:56.660Z,52.30
2018-05-27T06:18:24.170Z,48.43
2018-05-27T06:20:52.291Z,42.87
2018-05-27T06:23:19.818Z,57.90
2018-05-27T06:25:47.344Z,53.87
2018-05-27T06:28:15.049Z,48.60
2018-05-27T06:30:42.555Z,46.47
2018-05-27T06:33:10.072Z,59.10
2018-05-27T06:35:37.591Z,49.03
2018-05-27T06:38:05.097Z,51.90
2018-05-27T06:40:32.635Z,49.23
2018-05-27T06:43:00.157Z,49.77
2018-05-27T06:45:27.662Z,51.17
2018-05-27T06:47:55.177Z,46.10
2018-05-27T06:50:22.686Z,47.60
2018-05-27T06:52:50.979Z,41.97
2018-05-27T06:55:18.481Z,52.53
2018-05-27T06:57:46.046Z,47.90
2018-05-27T07:00:13.677Z,53.63
2018-05-27T07:02:42.210Z,48.33
2018-05-27T07:05:09.730Z,47.57
2018-05-27T07:07:37.430Z,47.37
2018-05-27T07:10:04.946Z,46.60
2018-05-27T07:12:32.670Z,42.53
2018-05-27T07:15:00.180Z,34.87
2018-05-27T07:17:27.681Z,34.40
2018-05-27T07:19:55.321Z,32.93
2018-05-27T07:22:23.094Z,32.33
2018-05-27T07:24:50.605Z,35.97
2018-05-27T07:27:18.281Z,31.47
2018-05-27T07:29:46.054Z,26.77
2018-05-27T07:32:13.627Z,23.50
2018-05-27T07:34:41.171Z,22.53
2018-05-27T07:37:08.781Z,22.00
2018-05-27T07:39:36.335Z,27.73
2018-05-27T07:42:03.859Z,24.27
2018-05-27T07:44:31.442Z,18.63
2018-05-27T07:46:59.003Z,22.60
2018-05-27T07:49:26.680Z,21.23
2018-05-27T07:51:54.430Z,19.87
2018-05-27T07:54:22.211Z,23.70
2018-05-27T07:56:49.949Z,20.30
2018-05-27T07:59:17.501Z,17.30
2018-05-27T08:01:45.002Z,17.40
2018-05-27T08:04:13.326Z,18.80
2018-05-27T08:06:41.088Z,19.30
2018-05-27T08:09:09.018Z,18.77
2018-05-27T08:11:36.640Z,19.53
2018-05-27T08:14:04.233Z,18.40
2018-05-27T08:16:31.770Z,17.80
2018-05-27T08:18:59.517Z,18.50
2018-05-27T08:21:27.078Z,17.07
2018-05-27T08:23:54.625Z,23.27
2018-05-27T08:26:22.178Z,16.53
2018-05-27T08:28:49.713Z,18.97
2018-05-27T08:31:17.403Z,17.70
2018-05-27T08:33:45.208Z,15.77
2018-05-27T08:36:13.518Z,14.50
2018-05-27T08:38:41.091Z,18.90
2018-05-27T08:41:08.790Z,17.80
2018-05-27T08:43:36.574Z,17.60
2018-05-27T08:46:04.140Z,17.87
2018-05-27T08:48:31.770Z,14.70
2018-05-27T08:50:59.540Z,17.10
2018-05-27T08:53:27.165Z,14.00
2018-05-27T08:55:54.909Z,17.73
2018-05-27T08:58:22.543Z,14.00
2018-05-27T09:00:50.126Z,16.47
2018-05-27T09:03:18.091Z,17.57
2018-05-27T09:05:45.810Z,18.40
2018-05-27T09:08:14.551Z,17.60
2018-05-27T09:10:42.075Z,17.07
2018-05-27T09:13:10.376Z,14.00
2018-05-27T09:15:37.913Z,16.53
2018-05-27T09:18:07.446Z,19.03
2018-05-27T09:20:35.263Z,13.77
2018-05-27T09:23:02.856Z,16.00
2018-05-27T09:25:30.720Z,17.70
2018-05-27T09:27:58.257Z,13.47
2018-05-27T09:30:27.457Z,23.40
2018-05-27T09:32:55.061Z,14.13
2018-05-27T09:35:22.643Z,12.60
2018-05-27T09:37:50.198Z,15.33
2018-05-27T09:40:17.942Z,15.30
2018-05-27T09:42:45.444Z,13.50
2018-05-27T09:45:13.005Z,16.57
2018-05-27T09:47:40.638Z,15.27
2018-05-27T09:50:08.271Z,15.57
2018-05-27T09:52:36.227Z,12.20
2018-05-27T09:55:04.531Z,15.93
2018-05-27T09:57:32.076Z,9.80
2018-05-27T09:59:59.657Z,8.80
2018-05-27T10:02:27.637Z,8.90
2018-05-27T10:04:55.578Z,7.80
2018-05-27T10:07:23.116Z,8.73
2018-05-27T10:09:50.674Z,10.30
2018-05-27T10:12:18.229Z,14.10
2018-05-27T10:14:45.838Z,14.17
2018-05-27T10:17:13.400Z,12.87
2018-05-27T10:19:41.045Z,7.80
2018-05-27T10:22:08.771Z,17.90
2018-05-27T10:24:37.131Z,8.23
2018-05-27T10:27:05.450Z,7.47
2018-05-27T10:29:33.154Z,10.40
2018-05-27T10:32:00.733Z,9.43
2018-05-27T10:34:28.998Z,7.10
2018-05-27T10:36:56.510Z,7.67
2018-05-27T10:39:24.194Z,11.70
2018-05-27T10:41:52.107Z,11.63
2018-05-27T10:44:20.388Z,8.93
2018-05-27T10:46:48.027Z,12.63
2018-05-27T10:49:15.537Z,6.63
2018-05-27T10:51:43.329Z,10.27
2018-05-27T10:54:10.844Z,7.27
2018-05-27T10:56:38.361Z,6.63
2018-05-27T10:59:05.890Z,9.80
2018-05-27T11:01:33.441Z,6.50
2018-05-27T11:04:00.927Z,8.13
2018-05-27T11:06:29.946Z,13.97
2018-05-27T11:08:57.466Z,7.43
2018-05-27T11:11:24.982Z,6.83
2018-05-27T11:13:52.583Z,7.60
2018-05-27T11:16:20.124Z,6.60
2018-05-27T11:18:47.689Z,6.03
2018-05-27T11:21:15.633Z,7.17
2018-05-27T11:23:43.341Z,6.37
2018-05-27T11:26:12.357Z,4.73
2018-05-27T11:28:40.072Z,6.00
2018-05-27T11:31:07.583Z,6.70
2018-05-27T11:33:35.098Z,5.67
2018-05-27T11:36:02.620Z,14.03
2018-05-27T11:38:31.136Z,9.87
2018-05-27T11:40:58.642Z,7.10
2018-05-27T11:43:26.348Z,8.03
2018-05-27T11:45:53.863Z,6.83
2018-05-27T11:48:21.530Z,4.97
2018-05-27T11:50:49.349Z,5.70
2018-05-27T11:53:16.974Z,5.83
2018-05-27T11:55:44.478Z,6.50
2018-05-27T11:58:12.009Z,6.90
2018-05-27T12:00:39.538Z,7.20
2018-05-27T12:03:07.040Z,7.20
2018-05-27T12:05:34.653Z,11.23
2018-05-27T12:08:02.442Z,7.00
2018-05-27T12:10:29.956Z,9.10
2018-05-27T12:12:57.673Z,7.80
2018-05-27T12:15:25.176Z,13.50
2018-05-27T12:17:52.683Z,9.97
2018-05-27T12:20:20.215Z,9.53
2018-05-27T12:22:48.289Z,7.97
2018-05-27T12:25:15.820Z,10.53
2018-05-27T12:27:44.099Z,15.27
2018-05-27T12:30:11.694Z,9.17
2018-05-27T12:32:39.197Z,15.10
2018-05-27T12:35:06.930Z,15.40
2018-05-27T12:37:34.911Z,11.03
2018-05-27T12:40:02.450Z,13.47
2018-05-27T12:42:29.957Z,19.00
2018-05-27T12:44:57.524Z,13.67
2018-05-27T12:47:25.801Z,12.60
2018-05-27T12:49:53.301Z,13.73
2018-05-27T12:52:21.741Z,10.67
2018-05-27T12:54:49.286Z,10.03
2018-05-27T12:57:16.796Z,8.07
2018-05-27T13:11:46.047Z,15.17
2018-05-27T13:14:13.552Z,11.13
2018-05-27T13:16:41.162Z,10.27
2018-05-27T13:19:08.666Z,14.73
2018-05-27T13:21:36.211Z,10.30
2018-05-27T13:24:03.970Z,24.47
2018-05-27T13:26:31.482Z,10.00
2018-05-27T13:28:59.110Z,9.60
2018-05-27T13:31:26.652Z,6.77
2018-05-27T13:33:54.150Z,8.47
2018-05-27T13:36:21.766Z,9.90
2018-05-27T13:38:49.271Z,8.20
2018-05-27T13:41:17.113Z,6.90
2018-05-27T13:43:44.618Z,8.30
2018-05-27T13:46:12.926Z,8.00
2018-05-27T13:48:40.429Z,7.20
2018-05-27T13:51:07.965Z,7.53
2018-05-27T13:53:35.495Z,10.57
2018-05-27T13:56:03.033Z,11.07
2018-05-27T13:58:30.923Z,6.63
2018-05-27T14:00:58.551Z,8.00
2018-05-27T14:03:26.050Z,12.73
2018-05-27T14:33:12.100Z,6.70
2018-05-27T14:35:39.599Z,10.27
2018-05-27T14:38:07.354Z,7.90
2018-05-27T14:40:34.872Z,8.23
2018-05-27T14:43:02.437Z,12.33
2018-05-27T14:45:29.939Z,8.57
2018-05-27T14:47:57.443Z,10.37
2018-05-27T14:50:25.277Z,7.40
2018-05-27T14:52:52.747Z,9.20
2018-05-27T14:55:20.453Z,7.73
2018-05-27T14:57:48.218Z,8.10
2018-05-27T15:00:15.986Z,11.40
2018-05-27T15:02:43.491Z,9.43
2018-05-27T15:05:11.253Z,10.23
2018-05-27T15:07:39.377Z,8.43
2018-05-27T15:10:06.887Z,12.90
2018-05-27T15:12:35.219Z,11.40
2018-05-27T15:15:02.858Z,8.73
2018-05-27T15:17:30.357Z,9.63
2018-05-27T15:19:58.401Z,14.07
2018-05-27T15:22:25.916Z,9.87
2018-05-27T15:24:53.617Z,10.73
2018-05-27T15:27:21.378Z,9.53
2018-05-27T15:29:49.142Z,11.57
2018-05-27T15:32:16.910Z,12.43
2018-05-27T15:34:44.413Z,13.50
2018-05-27T15:37:12.172Z,10.73
2018-05-27T15:39:39.880Z,11.27
2018-05-27T15:42:07.374Z,10.30
2018-05-27T15:44:35.118Z,15.97
2018-05-27T15:47:02.634Z,11.03
2018-05-27T15:49:30.145Z,8.53
2018-05-27T15:51:57.657Z,12.47
2018-05-27T15:54:25.221Z,11.23
2018-05-27T15:56:53.038Z,14.67
2018-05-27T15:59:20.571Z,8.20
2018-05-27T16:01:48.258Z,10.30
2018-05-27T16:04:16.174Z,10.53
2018-05-27T16:06:43.705Z,11.00
2018-05-27T16:09:11.982Z,11.80
2018-05-27T16:11:40.250Z,9.27
2018-05-27T16:14:07.970Z,10.63
2018-05-27T16:16:35.490Z,8.50
2018-05-27T16:19:03.191Z,8.23
2018-05-27T16:21:30.950Z,9.43
2018-05-27T16:23:58.718Z,7.60
2018-05-27T16:26:26.478Z,9.13
2018-05-27T16:28:54.241Z,13.27
2018-05-27T16:31:22.006Z,11.33
2018-05-27T16:33:49.721Z,10.80
2018-05-27T16:36:17.225Z,7.40
2018-05-27T16:38:45.992Z,7.10
2018-05-27T16:41:13.694Z,10.10
2018-05-27T16:43:41.214Z,8.10
2018-05-27T16:46:08.902Z,10.77
2018-05-27T16:48:36.419Z,12.43
2018-05-27T16:51:03.931Z,15.93
2018-05-27T16:53:31.449Z,14.10
2018-05-27T16:55:58.954Z,8.47
2018-05-27T16:58:26.483Z,13.00
2018-05-27T17:00:54.254Z,12.30
2018-05-27T17:03:21.771Z,12.93
2018-05-27T17:05:49.291Z,10.70
2018-05-27T17:08:16.926Z,16.87
2018-05-27T17:10:44.442Z,11.67
2018-05-27T17:13:12.141Z,14.47
2018-05-27T17:15:39.681Z,12.47
2018-05-27T17:18:07.394Z,19.13
2018-05-27T17:20:34.900Z,12.80
2018-05-27T17:23:02.597Z,9.53
2018-05-27T17:25:30.082Z,9.07
2018-05-27T17:27:58.352Z,9.67
2018-05-27T17:30:25.894Z,9.60
2018-05-27T17:32:53.645Z,11.37
2018-05-27T17:35:21.406Z,9.63
2018-05-27T17:37:48.919Z,9.40
2018-05-27T17:40:16.566Z,9.57
2018-05-27T17:42:45.062Z,9.47
2018-05-27T17:45:12.746Z,10.20
2018-05-27T17:47:40.562Z,9.93
2018-05-27T17:50:08.293Z,14.23
2018-05-27T17:52:36.062Z,11.10
2018-05-27T17:55:03.568Z,11.97
2018-05-27T17:57:31.296Z,19.03
2018-05-27T17:59:58.817Z,10.70
2018-05-27T18:02:26.325Z,11.77
2018-05-27T18:04:53.923Z,14.10
2018-05-27T18:07:21.462Z,11.83
2018-05-27T18:09:49.219Z,10.77
2018-05-27T18:12:16.937Z,17.57
2018-05-27T18:14:44.463Z,35.87
2018-05-27T18:17:11.976Z,14.50
2018-05-27T18:19:39.497Z,13.83
2018-05-27T18:22:07.031Z,19.37
2018-05-27T18:24:34.843Z,19.83
2018-05-27T18:27:02.383Z,18.43
2018-05-27T18:29:31.083Z,23.73
2018-05-27T18:31:58.578Z,29.90
2018-05-27T18:34:26.525Z,18.20
2018-05-27T18:36:54.042Z,15.63
2018-05-27T18:39:21.557Z,15.70
2018-05-27T18:41:49.067Z,13.37
2018-05-27T18:44:16.579Z,15.77
2018-05-27T18:46:44.089Z,17.37
2018-05-27T18:49:11.879Z,17.70
2018-05-27T18:51:39.379Z,14.07
2018-05-27T18:54:07.086Z,13.33
2018-05-27T18:56:34.598Z,16.40
2018-05-27T18:59:02.221Z,13.23
2018-05-27T19:01:29.689Z,15.53
2018-05-27T19:03:57.982Z,22.00
2018-05-27T19:06:27.070Z,13.27
2018-05-27T19:08:54.690Z,19.43
2018-05-27T19:11:22.593Z,14.10
2018-05-27T19:13:50.109Z,15.13
2018-05-27T19:16:17.667Z,22.20
2018-05-27T19:18:45.820Z,16.53
2018-05-27T19:21:13.397Z,13.30
2018-05-27T19:23:41.763Z,13.97
2018-05-27T19:26:09.571Z,13.23
2018-05-27T19:28:37.186Z,13.47
2018-05-27T19:31:04.700Z,19.80
2018-05-27T19:33:32.269Z,15.43
2018-05-27T19:35:59.946Z,17.67
2018-05-27T19:38:27.449Z,14.67
2018-05-27T19:40:55.445Z,15.23
2018-05-27T19:43:22.995Z,15.63
2018-05-27T19:45:50.758Z,15.50
2018-05-27T19:48:19.778Z,22.57
2018-05-27T19:50:47.294Z,15.60
2018-05-27T19:53:14.826Z,17.30
2018-05-27T19:55:42.331Z,16.17
2018-05-27T19:58:09.842Z,18.07
2018-05-27T20:00:37.366Z,17.33
2018-05-27T20:03:04.895Z,17.83
2018-05-27T20:05:32.407Z,15.50
2018-05-27T20:07:59.993Z,14.00
2018-05-27T20:10:27.754Z,18.00
2018-05-27T20:12:55.258Z,15.50
2018-05-27T20:15:23.153Z,17.63
2018-05-27T20:17:50.735Z,16.03
2018-05-27T20:20:18.503Z,16.77
2018-05-27T20:22:46.010Z,17.03
2018-05-27T20:25:13.918Z,17.40
2018-05-27T20:27:41.430Z,15.00
2018-05-27T20:30:09.264Z,15.70
2018-05-27T20:32:36.767Z,17.10
2018-05-27T20:35:04.278Z,17.43
2018-05-27T20:37:31.955Z,16.13
2018-05-27T20:39:59.735Z,19.00
2018-05-27T20:42:27.238Z,22.93
2018-05-27T20:44:54.761Z,17.23
2018-05-27T20:47:22.331Z,18.00
2018-05-27T20:49:50.256Z,18.97
2018-05-27T20:52:18.574Z,20.40
2018-05-27T20:54:46.886Z,16.50
2018-05-27T20:57:14.452Z,18.23
2018-05-27T20:59:41.954Z,16.67
2018-05-27T21:02:09.462Z,18.57
2018-05-27T21:04:36.969Z,21.73
2018-05-27T21:07:04.793Z,20.27
2018-05-27T21:09:32.305Z,18.40
2018-05-27T21:11:59.814Z,16.53
2018-05-27T21:14:27.453Z,20.43
2018-05-27T21:16:54.965Z,17.87
2018-05-27T21:19:22.630Z,17.87
2018-05-27T21:21:50.448Z,15.97
2018-05-27T21:24:18.299Z,18.77
2018-05-27T21:26:45.791Z,18.73
2018-05-27T21:29:13.298Z,17.90
2018-05-27T21:31:40.893Z,18.50
2018-05-27T21:34:08.394Z,21.33
2018-05-27T21:36:35.938Z,16.37
2018-05-27T21:39:03.838Z,19.10
2018-05-27T21:41:31.354Z,17.57
2018-05-27T21:43:59.086Z,17.20
2018-05-27T21:46:26.602Z,16.33
2018-05-27T21:48:54.209Z,18.37
2018-05-27T21:51:21.754Z,20.63
2018-05-27T21:53:49.266Z,22.57
2018-05-27T21:56:16.793Z,18.07
2018-05-27T21:58:45.461Z,19.60
2018-05-27T22:01:13.118Z,16.70
2018-05-27T22:03:40.665Z,18.53
2018-05-27T22:06:08.353Z,21.20
2018-05-27T22:08:35.869Z,17.93
2018-05-27T22:11:03.884Z,18.33
2018-05-27T22:13:31.410Z,18.93
2018-05-27T22:15:59.396Z,21.83
2018-05-27T22:18:27.439Z,17.70
2018-05-27T22:20:54.950Z,16.33
2018-05-27T22:23:22.454Z,19.20
2018-05-27T22:25:50.142Z,20.00
2018-05-27T22:28:17.871Z,16.43
2018-05-27T22:30:45.485Z,18.70
2018-05-27T22:33:12.991Z,14.50
2018-05-27T22:35:40.587Z,16.33
2018-05-27T22:38:08.094Z,15.83
2018-05-27T22:40:36.131Z,26.20
2018-05-27T22:43:03.885Z,18.33
2018-05-27T22:45:31.662Z,14.93
2018-05-27T22:47:59.430Z,16.50
2018-05-27T22:50:28.740Z,14.80
2018-05-27T22:52:57.099Z,20.33
2018-05-27T22:55:24.612Z,14.00
2018-05-27T22:57:52.590Z,12.80
2018-05-27T23:00:20.093Z,18.40
2018-05-27T23:02:49.362Z,21.50
2018-05-27T23:05:17.131Z,13.80
2018-05-27T23:07:44.900Z,18.73
2018-05-27T23:10:12.420Z,15.30
2018-05-27T23:12:39.918Z,13.40
2018-05-27T23:15:07.548Z,17.20
2018-05-27T23:17:35.057Z,18.23
2018-05-27T23:20:03.333Z,14.00
2018-05-27T23:22:31.244Z,21.10
2018-05-27T23:24:58.746Z,13.27
2018-05-27T23:27:26.394Z,20.13
2018-05-27T23:29:53.894Z,14.60
2018-05-27T23:32:21.410Z,14.13
2018-05-27T23:34:49.044Z,13.93
2018-05-27T23:37:16.546Z,13.60
2018-05-27T23:39:44.282Z,14.27
2018-05-27T23:42:11.995Z,12.33
2018-05-27T23:44:39.506Z,12.87
2018-05-27T23:47:07.022Z,12.70
2018-05-27T23:49:34.722Z,12.10
2018-05-27T23:52:02.487Z,11.30
2018-05-27T23:54:30.264Z,11.90
2018-05-27T23:56:57.994Z,12.10
2018-05-27T23:59:25.494Z,10.70
